createdAt,value
2023-03-29T00:01:57.693Z,59.02
2023-03-29T00:06:03.481Z,59.62
2023-03-29T00:10:07.698Z,59.79
2023-03-29T00:14:12.141Z,59.90
2023-03-29T00:18:15.893Z,60.37
2023-03-29T00:22:18.881Z,60.21
2023-03-29T00:26:22.414Z,60.42
2023-03-29T00:30:27.338Z,60.48
2023-03-29T00:34:31.860Z,60.66
2023-03-29T00:38:35.289Z,60.80
2023-03-29T00:42:39.382Z,60.87
2023-03-29T00:46:43.797Z,61.13
2023-03-29T00:50:52.341Z,60.90
2023-03-29T00:54:57.818Z,61.03
2023-03-29T00:59:05.502Z,61.22
2023-03-29T01:03:15.333Z,61.35
2023-03-29T01:07:24.522Z,61.26
2023-03-29T01:11:30.463Z,61.46
2023-03-29T01:15:34.798Z,61.49
2023-03-29T01:19:45.524Z,61.56
2023-03-29T01:24:19.512Z,61.50
2023-03-29T01:28:29.042Z,61.39
2023-03-29T01:32:36.697Z,61.50
2023-03-29T01:36:42.717Z,61.29
2023-03-29T01:40:46.439Z,61.69
2023-03-29T01:44:58.024Z,61.49
2023-03-29T01:49:06.026Z,61.36
2023-03-29T01:53:13.649Z,61.66
2023-03-29T01:57:18.334Z,62.10
2023-03-29T02:01:27.649Z,61.93
2023-03-29T02:05:33.174Z,61.85
2023-03-29T02:09:40.134Z,61.47
2023-03-29T02:13:43.314Z,61.29
2023-03-29T02:17:49.757Z,61.81
2023-03-29T02:22:02.059Z,62.58
2023-03-29T02:26:07.065Z,62.50
2023-03-29T02:30:12.405Z,62.97
2023-03-29T02:34:23.804Z,63.33
2023-03-29T02:38:28.692Z,62.38
2023-03-29T02:42:33.480Z,62.59
2023-03-29T02:46:37.989Z,64.26
2023-03-29T02:50:46.870Z,63.82
2023-03-29T02:54:51.822Z,63.11
2023-03-29T02:58:54.979Z,62.40
2023-03-29T03:03:00.662Z,61.57
2023-03-29T03:07:06.788Z,61.44
2023-03-29T03:11:10.403Z,61.54
2023-03-29T03:15:13.808Z,62.03
2023-03-29T03:19:17.115Z,62.40
2023-03-29T03:23:21.505Z,62.66
2023-03-29T03:27:27.790Z,62.58
2023-03-29T03:31:30.957Z,62.63
2023-03-29T03:35:35.115Z,63.32
2023-03-29T03:39:39.868Z,62.20
2023-03-29T03:43:46.064Z,62.69
2023-03-29T03:47:49.577Z,63.71
2023-03-29T03:51:53.167Z,62.99
2023-03-29T03:55:58.363Z,62.79
2023-03-29T04:00:01.697Z,63.07
2023-03-29T04:04:05.089Z,63.76
2023-03-29T04:08:08.360Z,64.48
2023-03-29T04:12:13.198Z,63.16
2023-03-29T04:16:16.220Z,63.46
2023-03-29T04:20:19.997Z,63.02
2023-03-29T04:24:24.633Z,63.66
2023-03-29T04:28:29.596Z,62.94
2023-03-29T04:32:32.582Z,62.88
2023-03-29T04:36:36.639Z,61.65
2023-03-29T04:40:39.791Z,62.03
2023-03-29T04:44:44.381Z,62.79
2023-03-29T04:48:47.397Z,62.90
2023-03-29T04:52:51.060Z,63.17
2023-03-29T04:56:54.583Z,63.23
2023-03-29T05:01:00.028Z,62.85
2023-03-29T05:05:03.091Z,63.08
2023-03-29T05:09:09.351Z,62.82
2023-03-29T05:13:12.811Z,62.49
2023-03-29T05:17:17.549Z,62.57
2023-03-29T05:21:20.853Z,63.12
2023-03-29T05:25:26.107Z,63.14
2023-03-29T05:29:29.067Z,63.81
2023-03-29T05:33:34.006Z,63.31
2023-03-29T05:37:37.085Z,63.59
2023-03-29T05:41:40.783Z,63.78
2023-03-29T05:45:43.838Z,64.26
2023-03-29T05:49:48.796Z,64.48
2023-03-29T05:53:52.319Z,64.86
2023-03-29T05:57:56.024Z,65.33
2023-03-29T06:02:00.480Z,65.40
2023-03-29T06:06:06.155Z,65.51
2023-03-29T06:10:10.715Z,65.99
2023-03-29T06:15:10.515Z,65.61
2023-03-29T06:19:13.667Z,66.19
2023-03-29T06:23:18.359Z,65.54
2023-03-29T06:27:21.260Z,66.13
2023-03-29T06:31:24.968Z,65.65
2023-03-29T06:35:28.581Z,65.50
2023-03-29T06:39:33.543Z,65.96
2023-03-29T06:43:36.728Z,65.87
2023-03-29T06:47:40.391Z,65.63
2023-03-29T06:51:43.343Z,65.58
2023-03-29T06:55:56.102Z,65.50
2023-03-29T06:59:58.857Z,64.92
2023-03-29T07:04:05.088Z,66.26
2023-03-29T07:08:14.195Z,65.72
2023-03-29T07:12:19.552Z,66.25
2023-03-29T07:16:23.328Z,65.97
2023-03-29T07:20:27.858Z,66.08
2023-03-29T07:24:30.755Z,66.64
2023-03-29T07:28:37.629Z,66.63
2023-03-29T07:32:44.460Z,66.80
2023-03-29T07:36:48.139Z,66.43
2023-03-29T07:40:51.078Z,65.95
2023-03-29T07:44:56.114Z,66.04
2023-03-29T07:48:59.152Z,65.69
2023-03-29T07:53:03.765Z,66.08
2023-03-29T07:57:07.009Z,64.50
2023-03-29T08:01:18.853Z,65.26
2023-03-29T08:05:37.944Z,64.78
2023-03-29T08:09:45.293Z,64.77
2023-03-29T08:13:48.210Z,64.68
2023-03-29T08:17:53.058Z,65.25
2023-03-29T08:21:56.013Z,65.11
2023-03-29T08:26:00.118Z,64.82
2023-03-29T08:30:03.264Z,63.51
2023-03-29T08:34:08.080Z,64.13
2023-03-29T08:38:12.652Z,63.59
2023-03-29T08:42:35.772Z,64.91
2023-03-29T08:46:45.327Z,63.76
2023-03-29T08:50:55.730Z,63.82
2023-03-29T08:55:01.701Z,64.75
2023-03-29T08:59:08.360Z,64.72
2023-03-29T09:03:18.420Z,63.99
2023-03-29T09:07:25.956Z,62.69
2023-03-29T09:11:44.527Z,62.79
2023-03-29T09:15:56.809Z,62.62
2023-03-29T09:20:09.634Z,62.97
2023-03-29T09:24:22.995Z,64.24
2023-03-29T09:28:31.385Z,64.35
2023-03-29T09:32:41.300Z,61.49
2023-03-29T09:36:52.534Z,60.54
2023-03-29T09:41:04.745Z,60.35
2023-03-29T09:45:09.721Z,58.85
2023-03-29T09:49:18.229Z,59.82
2023-03-29T09:53:22.962Z,60.13
2023-03-29T09:57:31.175Z,60.13
2023-03-29T10:01:41.864Z,60.29
2023-03-29T10:05:48.317Z,61.03
2023-03-29T10:09:55.226Z,60.13
2023-03-29T10:14:04.550Z,59.86
2023-03-29T10:18:13.717Z,60.20
2023-03-29T10:22:20.570Z,59.41
2023-03-29T10:26:29.682Z,59.25
2023-03-29T10:30:38.196Z,59.01
2023-03-29T10:34:41.603Z,58.75
2023-03-29T10:38:46.303Z,58.89
2023-03-29T10:42:50.861Z,58.40
2023-03-29T10:46:56.089Z,57.61
2023-03-29T10:51:02.062Z,57.25
2023-03-29T10:55:07.240Z,56.66
2023-03-29T10:59:31.249Z,59.39
2023-03-29T11:04:04.471Z,59.18
2023-03-29T11:08:20.085Z,57.51
2023-03-29T11:12:30.669Z,57.70
2023-03-29T11:16:41.348Z,56.38
2023-03-29T11:20:57.567Z,55.85
2023-03-29T11:25:19.294Z,56.64
2023-03-29T11:29:30.131Z,55.46
2023-03-29T11:33:46.764Z,56.66
2023-03-29T11:37:58.590Z,55.08
2023-03-29T11:42:09.828Z,55.83
2023-03-29T11:46:18.049Z,55.03
2023-03-29T11:50:25.252Z,54.92
2023-03-29T11:54:36.661Z,55.08
2023-03-29T11:58:44.714Z,55.49
2023-03-29T12:02:52.177Z,55.17
2023-03-29T12:07:06.927Z,54.89
2023-03-29T12:11:20.031Z,55.04
2023-03-29T12:15:25.714Z,54.15
2023-03-29T12:19:32.898Z,55.12
2023-03-29T12:23:36.021Z,54.53
2023-03-29T12:27:49.332Z,55.89
2023-03-29T12:32:01.959Z,55.43
2023-03-29T12:36:22.034Z,57.61
2023-03-29T12:40:29.164Z,57.49
2023-03-29T12:44:34.915Z,55.81
2023-03-29T12:48:40.074Z,55.26
2023-03-29T12:52:44.411Z,55.96
2023-03-29T12:56:58.902Z,57.07
2023-03-29T13:01:09.427Z,56.08
2023-03-29T13:05:31.980Z,56.09
2023-03-29T13:09:48.204Z,54.82
2023-03-29T13:13:52.969Z,53.03
2023-03-29T13:18:05.565Z,55.29
2023-03-29T13:22:21.845Z,55.17
2023-03-29T13:26:44.239Z,54.55
2023-03-29T13:30:59.567Z,54.86
2023-03-29T13:35:15.337Z,55.48
2023-03-29T13:39:23.789Z,55.13
2023-03-29T13:43:34.283Z,53.33
2023-03-29T13:47:55.009Z,52.62
2023-03-29T13:52:17.320Z,53.23
2023-03-29T13:56:27.019Z,53.19
2023-03-29T14:00:37.353Z,52.93
2023-03-29T14:04:46.336Z,52.05
2023-03-29T14:08:51.082Z,53.50
2023-03-29T14:12:56.946Z,52.34
2023-03-29T14:17:02.357Z,52.51
2023-03-29T14:21:06.927Z,53.44
2023-03-29T14:25:17.475Z,54.16
2023-03-29T14:29:21.854Z,51.52
2023-03-29T14:33:27.991Z,52.10
2023-03-29T14:37:31.705Z,52.87
2023-03-29T14:41:39.444Z,53.49
2023-03-29T14:45:42.980Z,52.24
2023-03-29T14:49:47.443Z,53.59
2023-03-29T14:53:51.220Z,53.36
2023-03-29T14:57:58.057Z,52.69
2023-03-29T15:02:01.396Z,51.88
2023-03-29T15:06:06.817Z,52.17
2023-03-29T15:10:18.951Z,52.35
2023-03-29T15:14:27.009Z,52.70
2023-03-29T15:18:35.132Z,53.65
2023-03-29T15:22:38.940Z,52.62
2023-03-29T15:26:43.362Z,52.31
2023-03-29T15:30:57.395Z,52.40
2023-03-29T15:35:10.884Z,52.89
2023-03-29T15:39:15.461Z,52.63
2023-03-29T15:43:20.329Z,53.27
2023-03-29T15:47:25.560Z,54.87
2023-03-29T15:51:29.203Z,53.90
2023-03-29T15:55:33.526Z,53.94
2023-03-29T15:59:37.338Z,53.69
2023-03-29T16:03:41.998Z,53.31
2023-03-29T16:07:45.642Z,53.69
2023-03-29T16:11:49.599Z,54.14
2023-03-29T16:15:52.680Z,54.26
2023-03-29T16:19:57.293Z,54.77
2023-03-29T16:24:00.757Z,54.87
2023-03-29T16:28:04.967Z,54.78
2023-03-29T16:32:08.357Z,55.31
2023-03-29T16:36:13.455Z,55.86
2023-03-29T16:40:17.041Z,56.08
2023-03-29T16:44:23.782Z,56.46
2023-03-29T16:48:27.261Z,56.06
2023-03-29T16:52:32.646Z,56.99
2023-03-29T16:56:37.158Z,56.72
2023-03-29T17:00:41.026Z,57.05
2023-03-29T17:04:44.561Z,58.30
2023-03-29T17:08:50.542Z,59.05
2023-03-29T17:12:53.744Z,58.73
2023-03-29T17:16:56.797Z,59.61
2023-03-29T17:21:01.837Z,59.79
2023-03-29T17:25:07.909Z,59.81
2023-03-29T17:29:10.907Z,60.75
2023-03-29T17:33:15.289Z,61.71
2023-03-29T17:37:18.697Z,62.04
2023-03-29T17:41:24.046Z,62.07
2023-03-29T17:45:27.379Z,61.51
2023-03-29T17:49:30.365Z,62.19
2023-03-29T17:53:33.690Z,61.97
2023-03-29T17:57:38.317Z,62.05
2023-03-29T18:01:42.037Z,62.50
2023-03-29T18:05:45.273Z,62.13
2023-03-29T18:09:48.462Z,62.44
2023-03-29T18:13:56.126Z,62.66
2023-03-29T18:17:59.343Z,62.18
2023-03-29T18:22:02.491Z,62.94
2023-03-29T18:26:08.703Z,63.04
2023-03-29T18:30:16.739Z,63.52
2023-03-29T18:34:22.763Z,63.89
2023-03-29T18:38:25.977Z,64.79
2023-03-29T18:42:29.387Z,65.98
2023-03-29T18:46:34.547Z,66.11
2023-03-29T18:50:40.671Z,65.69
2023-03-29T18:54:44.287Z,66.43
2023-03-29T18:58:48.213Z,66.22
2023-03-29T19:02:52.869Z,65.64
2023-03-29T19:06:56.952Z,65.69
2023-03-29T19:11:03.527Z,65.60
2023-03-29T19:15:07.906Z,65.37
2023-03-29T19:19:13.339Z,65.60
2023-03-29T19:23:16.385Z,65.12
2023-03-29T19:27:20.703Z,65.22
2023-03-29T19:31:23.999Z,65.23
2023-03-29T19:35:28.956Z,65.34
2023-03-29T19:39:32.232Z,65.12
2023-03-29T19:43:36.100Z,65.95
2023-03-29T19:47:44.150Z,65.71
2023-03-29T19:51:48.708Z,66.42
2023-03-29T19:55:52.464Z,66.45
2023-03-29T19:59:55.764Z,66.64
2023-03-29T20:03:59.864Z,66.82
2023-03-29T20:08:04.750Z,66.85
2023-03-29T20:12:07.753Z,67.39
2023-03-29T20:16:13.926Z,67.42
2023-03-29T20:20:17.210Z,66.75
2023-03-29T20:24:21.885Z,66.83
2023-03-29T20:28:27.497Z,67.18
2023-03-29T20:32:31.183Z,66.88
2023-03-29T20:36:34.582Z,66.94
2023-03-29T20:40:41.703Z,67.49
2023-03-29T20:44:50.585Z,67.37
2023-03-29T20:48:54.457Z,68.08
2023-03-29T20:53:03.768Z,68.30
2023-03-29T20:57:09.062Z,68.05
2023-03-29T21:01:14.789Z,68.01
2023-03-29T21:05:18.544Z,67.91
2023-03-29T21:09:23.680Z,68.24
2023-03-29T21:13:28.436Z,68.06
2023-03-29T21:17:31.432Z,67.96
2023-03-29T21:21:35.539Z,68.08
2023-03-29T21:25:38.539Z,68.40
2023-03-29T21:30:13.795Z,68.07
2023-03-29T21:34:16.738Z,68.20
2023-03-29T21:38:20.250Z,68.08
2023-03-29T21:42:23.551Z,67.65
2023-03-29T21:46:28.730Z,67.62
2023-03-29T21:50:33.785Z,67.90
2023-03-29T21:54:37.293Z,67.99
2023-03-29T21:58:40.745Z,67.42
2023-03-29T22:02:47.581Z,67.82
2023-03-29T22:06:50.693Z,67.18
2023-03-29T22:10:57.072Z,67.05
2023-03-29T22:15:00.097Z,66.92
2023-03-29T22:19:05.827Z,66.85
2023-03-29T22:23:08.777Z,66.97
2023-03-29T22:27:12.820Z,66.80
2023-03-29T22:31:17.776Z,66.42
2023-03-29T22:35:22.417Z,66.45
2023-03-29T22:39:25.378Z,66.91
2023-03-29T22:43:29.081Z,67.07
2023-03-29T22:47:32.081Z,67.58
2023-03-29T22:51:37.480Z,67.51
2023-03-29T22:55:40.638Z,67.51
2023-03-29T22:59:43.990Z,67.57
2023-03-29T23:03:46.986Z,67.90
2023-03-29T23:07:52.117Z,67.74
2023-03-29T23:11:54.993Z,67.96
2023-03-29T23:16:00.405Z,68.20
2023-03-29T23:20:05.978Z,68.44
2023-03-29T23:24:10.794Z,68.42
2023-03-29T23:28:13.887Z,68.23
2023-03-29T23:32:17.859Z,68.12
2023-03-29T23:36:23.082Z,68.50
2023-03-29T23:40:28.184Z,67.94
2023-03-29T23:44:31.132Z,68.38
2023-03-29T23:48:34.843Z,68.17
2023-03-29T23:52:38.196Z,68.39
2023-03-29T23:56:43.286Z,68.41
